createdAt,value
2023-04-15T00:00:31.885Z,6.96
2023-04-15T00:03:35.738Z,6.84
2023-04-15T00:06:40.089Z,6.84
2023-04-15T00:09:44.923Z,6.84
2023-04-15T00:12:48.027Z,6.81
2023-04-15T00:15:51.299Z,6.68
2023-04-15T00:18:54.577Z,6.69
2023-04-15T00:21:57.673Z,6.71
2023-04-15T00:25:01.202Z,6.66
2023-04-15T00:28:04.440Z,6.67
2023-04-15T00:31:07.881Z,6.65
2023-04-15T00:34:10.948Z,6.59
2023-04-15T00:37:14.239Z,6.60
2023-04-15T00:40:19.883Z,6.59
2023-04-15T00:43:23.363Z,6.58
2023-04-15T00:46:28.985Z,6.62
2023-04-15T00:49:32.385Z,6.52
2023-04-15T00:52:36.298Z,6.51
2023-04-15T00:55:40.484Z,6.49
2023-04-15T00:58:43.591Z,6.46
2023-04-15T01:01:48.675Z,6.52
2023-04-15T01:04:52.198Z,6.59
2023-04-15T01:07:56.345Z,6.68
2023-04-15T01:11:03.730Z,6.60
2023-04-15T01:14:09.124Z,6.60
2023-04-15T01:17:13.372Z,6.66
2023-04-15T01:20:17.262Z,6.78
2023-04-15T01:23:22.183Z,6.90
2023-04-15T01:26:25.985Z,6.93
2023-04-15T01:29:29.920Z,6.97
2023-04-15T01:32:33.269Z,7.12
2023-04-15T01:35:55.066Z,7.24
2023-04-15T01:39:02.209Z,7.27
2023-04-15T01:42:05.326Z,7.15
2023-04-15T01:45:10.264Z,7.22
2023-04-15T01:48:15.925Z,7.21
2023-04-15T01:51:20.449Z,7.01
2023-04-15T01:54:27.815Z,7.21
2023-04-15T01:57:32.394Z,7.22
2023-04-15T02:00:37.000Z,7.22
2023-04-15T02:03:41.718Z,7.07
2023-04-15T02:06:46.552Z,7.03
2023-04-15T02:09:52.026Z,7.04
2023-04-15T02:12:56.584Z,6.99
2023-04-15T02:16:05.405Z,6.84
2023-04-15T02:19:10.209Z,6.78
2023-04-15T02:22:18.886Z,6.62
2023-04-15T02:25:24.354Z,6.62
2023-04-15T02:28:28.920Z,6.61
2023-04-15T02:31:37.210Z,6.65
2023-04-15T02:34:42.863Z,6.70
2023-04-15T02:37:47.976Z,6.64
2023-04-15T02:40:52.817Z,6.61
2023-04-15T02:43:57.486Z,6.65
2023-04-15T02:47:01.814Z,6.70
2023-04-15T02:50:09.615Z,6.64
2023-04-15T02:53:14.876Z,6.66
2023-04-15T02:56:20.069Z,6.67
2023-04-15T02:59:25.456Z,6.66
2023-04-15T03:02:35.700Z,6.69
2023-04-15T03:05:41.119Z,6.65
2023-04-15T03:08:45.982Z,6.78
2023-04-15T03:11:53.546Z,6.67
2023-04-15T03:14:58.737Z,6.72
2023-04-15T03:18:10.952Z,6.66
2023-04-15T03:21:15.101Z,6.71
2023-04-15T03:24:19.197Z,6.69
2023-04-15T03:27:24.518Z,6.61
2023-04-15T03:30:30.825Z,6.63
2023-04-15T03:33:35.216Z,6.65
2023-04-15T03:36:39.864Z,6.68
2023-04-15T03:39:44.520Z,6.62
2023-04-15T03:42:49.306Z,6.56
2023-04-15T03:45:53.413Z,6.63
2023-04-15T03:48:57.497Z,6.65
2023-04-15T03:52:01.704Z,6.65
2023-04-15T03:55:06.062Z,6.66
2023-04-15T03:58:12.991Z,6.72
2023-04-15T04:01:17.644Z,6.68
2023-04-15T04:04:22.088Z,6.77
2023-04-15T04:07:26.516Z,6.75
2023-04-15T04:10:31.225Z,6.60
2023-04-15T04:13:35.649Z,6.76
2023-04-15T04:16:40.290Z,6.69
2023-04-15T04:19:44.534Z,6.80
2023-04-15T04:22:48.944Z,6.73
2023-04-15T04:25:53.661Z,6.73
2023-04-15T04:28:57.866Z,6.73
2023-04-15T04:32:02.256Z,6.81
2023-04-15T04:35:07.382Z,6.81
2023-04-15T04:38:12.099Z,6.77
2023-04-15T04:41:16.591Z,6.85
2023-04-15T04:44:20.969Z,6.88
2023-04-15T04:47:25.277Z,6.89
2023-04-15T04:50:29.722Z,6.89
2023-04-15T04:53:34.074Z,6.89
2023-04-15T04:56:39.818Z,6.88
2023-04-15T04:59:44.238Z,6.94
2023-04-15T05:02:48.929Z,6.97
2023-04-15T05:05:53.578Z,6.99
2023-04-15T05:08:58.263Z,6.94
2023-04-15T05:12:04.217Z,7.04
2023-04-15T05:15:09.089Z,7.05
2023-04-15T05:18:13.430Z,7.01
2023-04-15T05:21:17.939Z,7.10
2023-04-15T05:24:22.680Z,7.12
2023-04-15T05:27:27.287Z,7.16
2023-04-15T05:30:32.025Z,7.14
2023-04-15T05:33:37.206Z,7.19
2023-04-15T05:36:41.427Z,7.24
2023-04-15T05:39:46.014Z,7.30
2023-04-15T05:42:51.422Z,7.23
2023-04-15T05:45:55.809Z,7.26
2023-04-15T05:49:00.966Z,7.30
2023-04-15T05:52:05.996Z,7.26
2023-04-15T05:55:10.400Z,7.30
2023-04-15T05:58:14.752Z,7.36
2023-04-15T06:01:19.491Z,7.39
2023-04-15T06:04:24.350Z,7.39
2023-04-15T06:07:28.748Z,7.48
2023-04-15T06:10:36.812Z,7.45
2023-04-15T06:13:41.675Z,7.50
2023-04-15T06:16:46.062Z,7.47
2023-04-15T06:19:55.505Z,7.35
2023-04-15T06:22:59.771Z,7.29
2023-04-15T06:26:03.909Z,7.36
2023-04-15T06:29:08.520Z,7.45
2023-04-15T06:32:13.163Z,7.54
2023-04-15T06:35:17.930Z,7.45
2023-04-15T06:38:22.173Z,7.51
2023-04-15T06:41:26.490Z,7.45
2023-04-15T06:44:33.290Z,7.45
2023-04-15T06:47:38.429Z,7.56
2023-04-15T06:50:42.981Z,7.58
2023-04-15T06:53:47.595Z,7.56
2023-04-15T06:56:52.543Z,7.53
2023-04-15T06:59:56.888Z,7.66
2023-04-15T07:03:03.852Z,7.67
2023-04-15T07:06:09.560Z,7.74
2023-04-15T07:09:13.804Z,7.76
2023-04-15T07:12:18.547Z,7.73
2023-04-15T07:15:23.620Z,7.75
2023-04-15T07:18:28.238Z,7.73
2023-04-15T07:21:32.822Z,7.79
2023-04-15T07:24:37.092Z,7.75
2023-04-15T07:27:41.809Z,7.75
2023-04-15T07:30:46.503Z,7.79
2023-04-15T07:33:51.541Z,7.89
2023-04-15T07:36:56.165Z,7.93
2023-04-15T07:40:00.599Z,8.02
2023-04-15T07:43:05.847Z,8.03
2023-04-15T07:46:10.605Z,8.11
2023-04-15T07:49:15.992Z,8.19
2023-04-15T07:52:20.530Z,8.27
2023-04-15T07:55:26.186Z,8.27
2023-04-15T07:58:31.804Z,8.30
2023-04-15T08:01:37.000Z,8.23
2023-04-15T08:04:41.927Z,8.29
2023-04-15T08:07:46.972Z,8.34
2023-04-15T08:10:52.963Z,8.31
2023-04-15T08:14:00.522Z,8.46
2023-04-15T08:17:04.737Z,8.49
2023-04-15T08:20:10.472Z,8.54
2023-04-15T08:23:14.907Z,8.62
2023-04-15T08:26:20.092Z,8.76
2023-04-15T08:29:24.774Z,9.03
2023-04-15T08:32:29.221Z,9.13
2023-04-15T08:35:33.595Z,9.19
2023-04-15T08:38:37.895Z,9.27
2023-04-15T08:41:55.485Z,9.23
2023-04-15T08:45:01.973Z,9.12
2023-04-15T08:48:07.812Z,9.13
2023-04-15T08:51:16.193Z,8.93
2023-04-15T08:54:20.967Z,9.03
2023-04-15T08:57:29.330Z,9.05
2023-04-15T09:00:34.270Z,9.17
2023-04-15T09:03:39.834Z,9.35
2023-04-15T09:06:44.591Z,9.41
2023-04-15T09:09:49.587Z,9.44
2023-04-15T09:12:54.200Z,9.61
2023-04-15T09:15:58.960Z,9.61
2023-04-15T09:19:21.774Z,9.84
2023-04-15T09:22:32.479Z,9.92
2023-04-15T09:25:37.180Z,9.86
2023-04-15T09:28:43.710Z,9.92
2023-04-15T09:31:48.218Z,9.87
2023-04-15T09:34:52.619Z,9.91
2023-04-15T09:38:05.967Z,10.09
2023-04-15T09:41:20.800Z,10.12
2023-04-15T09:44:26.904Z,9.91
2023-04-15T09:47:32.548Z,9.81
2023-04-15T09:50:41.712Z,9.66
2023-04-15T09:53:45.999Z,9.60
2023-04-15T09:56:50.654Z,9.59
2023-04-15T09:59:55.225Z,9.55
2023-04-15T10:02:59.764Z,9.62
2023-04-15T10:06:05.836Z,9.75
2023-04-15T10:09:10.323Z,9.75
2023-04-15T10:12:17.757Z,9.89
2023-04-15T10:15:23.500Z,9.90
2023-04-15T10:18:38.196Z,10.11
2023-04-15T10:21:42.971Z,10.39
2023-04-15T10:24:49.212Z,10.53
2023-04-15T10:27:53.804Z,10.69
2023-04-15T10:30:59.571Z,11.31
2023-04-15T10:34:06.675Z,11.38
2023-04-15T10:37:13.937Z,11.44
2023-04-15T10:40:25.537Z,11.51
2023-04-15T10:43:29.911Z,11.65
2023-04-15T10:46:41.392Z,11.64
2023-04-15T10:49:56.937Z,11.86
2023-04-15T10:53:04.906Z,12.05
2023-04-15T10:56:10.631Z,12.60
2023-04-15T10:59:16.582Z,13.02
2023-04-15T11:02:21.666Z,13.67
2023-04-15T11:05:41.566Z,13.53
2023-04-15T11:08:56.804Z,13.90
2023-04-15T11:12:10.616Z,14.67
2023-04-15T11:15:45.106Z,14.60
2023-04-15T11:18:56.576Z,14.02
2023-04-15T11:22:08.222Z,13.54
2023-04-15T11:25:26.404Z,13.28
2023-04-15T11:28:32.821Z,13.19
2023-04-15T11:31:37.790Z,12.89
2023-04-15T11:34:46.297Z,12.84
2023-04-15T11:37:51.630Z,13.64
2023-04-15T11:40:55.852Z,13.81
2023-04-15T11:44:00.536Z,14.38
2023-04-15T11:47:23.539Z,13.71
2023-04-15T11:50:27.950Z,13.23
2023-04-15T11:53:47.994Z,12.74
2023-04-15T11:56:53.035Z,12.70
2023-04-15T11:59:56.251Z,12.65
2023-04-15T12:03:19.732Z,12.47
2023-04-15T12:06:32.872Z,12.50
2023-04-15T12:09:40.075Z,13.17
2023-04-15T12:12:43.554Z,13.82
2023-04-15T12:15:50.389Z,13.95
2023-04-15T12:19:00.976Z,13.90
2023-04-15T12:22:16.010Z,13.61
2023-04-15T12:25:19.288Z,13.30
2023-04-15T12:28:22.224Z,13.10
2023-04-15T12:31:25.968Z,12.68
2023-04-15T12:34:32.304Z,12.31
2023-04-15T12:37:35.806Z,12.26
2023-04-15T12:40:38.946Z,12.18
2023-04-15T12:43:44.587Z,12.26
2023-04-15T12:46:47.964Z,13.22
2023-04-15T12:49:51.016Z,13.33
2023-04-15T12:52:54.538Z,13.23
2023-04-15T12:55:57.656Z,13.19
2023-04-15T12:59:00.937Z,13.22
2023-04-15T13:02:04.584Z,12.64
2023-04-15T13:05:08.262Z,12.25
2023-04-15T13:08:11.447Z,12.18
2023-04-15T13:11:14.599Z,12.08
2023-04-15T13:14:17.998Z,11.96
2023-04-15T13:17:22.214Z,11.68
2023-04-15T13:20:26.997Z,11.53
2023-04-15T13:23:30.079Z,11.41
2023-04-15T13:26:33.204Z,11.31
2023-04-15T13:29:36.338Z,11.44
2023-04-15T13:32:39.516Z,11.60
2023-04-15T13:35:42.451Z,12.10
2023-04-15T13:38:45.612Z,12.31
2023-04-15T13:41:49.383Z,12.53
2023-04-15T13:44:52.466Z,12.76
2023-04-15T13:47:57.271Z,13.12
2023-04-15T13:51:00.394Z,13.07
2023-04-15T13:54:04.281Z,13.17
2023-04-15T13:57:07.928Z,13.29
2023-04-15T14:00:12.074Z,13.40
2023-04-15T14:03:15.463Z,13.36
2023-04-15T14:06:18.550Z,13.45
2023-04-15T14:09:26.263Z,13.15
2023-04-15T14:12:29.981Z,12.79
2023-04-15T14:15:33.186Z,12.51
2023-04-15T14:18:37.492Z,12.16
2023-04-15T14:21:40.710Z,12.00
2023-04-15T14:24:44.841Z,12.06
2023-04-15T14:27:48.648Z,12.01
2023-04-15T14:30:51.711Z,12.00
2023-04-15T14:33:55.041Z,11.80
2023-04-15T14:36:58.531Z,11.58
2023-04-15T14:40:02.242Z,11.62
2023-04-15T14:43:05.862Z,11.52
2023-04-15T14:46:09.358Z,11.51
2023-04-15T14:49:12.884Z,11.47
2023-04-15T14:52:16.974Z,11.62
2023-04-15T14:55:20.532Z,11.57
2023-04-15T14:58:23.849Z,11.22
2023-04-15T15:01:27.192Z,11.20
2023-04-15T15:04:33.628Z,11.16
2023-04-15T15:07:37.885Z,10.79
2023-04-15T15:10:49.279Z,10.79
2023-04-15T15:13:53.585Z,10.78
2023-04-15T15:16:56.769Z,10.71
2023-04-15T15:20:00.122Z,10.72
2023-04-15T15:23:03.233Z,10.74
2023-04-15T15:26:12.767Z,10.76
2023-04-15T15:29:15.829Z,10.75
2023-04-15T15:32:19.318Z,10.83
2023-04-15T15:35:23.085Z,10.68
2023-04-15T15:38:26.429Z,10.52
2023-04-15T15:41:30.159Z,10.49
2023-04-15T15:44:34.642Z,10.39
2023-04-15T15:47:38.517Z,10.43
2023-04-15T15:50:41.768Z,10.32
2023-04-15T15:53:44.913Z,10.37
2023-04-15T15:56:48.217Z,10.56
2023-04-15T16:00:04.914Z,10.61
2023-04-15T16:03:16.061Z,10.67
2023-04-15T16:06:19.306Z,10.71
2023-04-15T16:09:23.043Z,10.62
2023-04-15T16:12:26.964Z,10.56
2023-04-15T16:15:30.424Z,10.59
2023-04-15T16:18:35.372Z,10.54
2023-04-15T16:21:38.551Z,10.57
2023-04-15T16:24:41.705Z,10.59
2023-04-15T16:27:57.805Z,10.40
2023-04-15T16:31:04.604Z,10.32
2023-04-15T16:34:07.610Z,10.44
2023-04-15T16:37:10.698Z,10.51
2023-04-15T16:40:15.233Z,10.39
2023-04-15T16:43:18.345Z,10.38
2023-04-15T16:46:21.704Z,10.36
2023-04-15T16:49:24.817Z,10.34
2023-04-15T16:52:29.083Z,10.43
2023-04-15T16:55:32.262Z,10.33
2023-04-15T16:58:35.806Z,10.39
2023-04-15T17:01:39.049Z,10.29
2023-04-15T17:04:42.247Z,10.25
2023-04-15T17:07:45.498Z,10.18
2023-04-15T17:10:49.399Z,10.09
2023-04-15T17:13:52.967Z,10.07
2023-04-15T17:16:56.726Z,9.96
2023-04-15T17:20:00.449Z,10.00
2023-04-15T17:23:04.370Z,10.01
2023-04-15T17:26:07.944Z,9.86
2023-04-15T17:29:11.354Z,9.87
2023-04-15T17:32:22.904Z,9.84
2023-04-15T17:35:45.834Z,9.84
2023-04-15T17:39:09.042Z,9.77
2023-04-15T17:42:32.415Z,9.69
2023-04-15T17:45:56.568Z,9.60
2023-04-15T17:49:21.081Z,9.49
2023-04-15T17:52:44.334Z,9.45
2023-04-15T17:56:07.293Z,9.39
2023-04-15T17:59:30.309Z,9.49
2023-04-15T18:02:55.325Z,9.46
2023-04-15T18:06:21.414Z,9.46
2023-04-15T18:09:44.590Z,9.39
2023-04-15T18:13:08.136Z,9.28
2023-04-15T18:16:31.496Z,9.33
2023-04-15T18:19:54.681Z,9.35
2023-04-15T18:22:58.331Z,9.33
2023-04-15T18:26:01.779Z,9.29
2023-04-15T18:29:05.542Z,9.35
2023-04-15T18:32:09.794Z,9.29
2023-04-15T18:35:12.999Z,9.26
2023-04-15T18:38:16.012Z,9.26
2023-04-15T18:41:19.861Z,9.27
2023-04-15T18:44:23.243Z,9.25
2023-04-15T18:47:27.782Z,9.25
2023-04-15T18:50:31.603Z,9.33
2023-04-15T18:53:35.170Z,9.19
2023-04-15T18:56:39.006Z,9.17
2023-04-15T18:59:42.727Z,9.27
2023-04-15T19:02:45.802Z,9.30
2023-04-15T19:05:49.112Z,9.26
2023-04-15T19:08:52.298Z,9.27
2023-04-15T19:11:57.025Z,9.25
2023-04-15T19:15:00.596Z,9.25
2023-04-15T19:18:05.461Z,9.22
2023-04-15T19:21:08.685Z,9.23
2023-04-15T19:24:12.872Z,9.14
2023-04-15T19:27:16.274Z,8.98
2023-04-15T19:30:21.412Z,8.82
2023-04-15T19:33:27.481Z,8.81
2023-04-15T19:36:32.118Z,8.83
2023-04-15T19:39:35.603Z,8.86
2023-04-15T19:42:38.553Z,8.80
2023-04-15T19:45:45.891Z,8.71
2023-04-15T19:48:49.542Z,8.78
2023-04-15T19:51:53.161Z,8.82
2023-04-15T19:54:57.197Z,8.83
2023-04-15T19:58:01.774Z,8.76
2023-04-15T20:01:05.425Z,8.73
2023-04-15T20:04:09.059Z,8.65
2023-04-15T20:07:12.069Z,8.67
2023-04-15T20:10:15.880Z,8.63
2023-04-15T20:13:19.453Z,8.61
2023-04-15T20:16:23.111Z,8.53
2023-04-15T20:19:26.305Z,8.54
2023-04-15T20:22:29.836Z,8.53
2023-04-15T20:25:33.045Z,8.46
2023-04-15T20:28:36.264Z,8.36
2023-04-15T20:31:40.600Z,8.34
2023-04-15T20:34:44.462Z,8.41
2023-04-15T20:37:49.126Z,8.23
2023-04-15T20:40:52.563Z,8.30
2023-04-15T20:43:55.906Z,8.17
2023-04-15T20:46:59.526Z,8.22
2023-04-15T20:50:02.896Z,8.22
2023-04-15T20:53:06.527Z,8.22
2023-04-15T20:56:09.892Z,8.20
2023-04-15T20:59:13.192Z,8.14
2023-04-15T21:02:16.639Z,8.18
2023-04-15T21:05:21.022Z,8.20
2023-04-15T21:08:29.417Z,8.18
2023-04-15T21:11:53.117Z,8.15
2023-04-15T21:14:56.890Z,8.26
2023-04-15T21:18:00.316Z,8.17
2023-04-15T21:21:03.817Z,8.07
2023-04-15T21:24:10.162Z,8.03
2023-04-15T21:27:13.284Z,7.99
2023-04-15T21:30:16.903Z,7.99
2023-04-15T21:33:20.624Z,7.86
2023-04-15T21:36:23.933Z,7.80
2023-04-15T21:39:31.027Z,7.79
2023-04-15T21:42:34.287Z,7.71
2023-04-15T21:45:39.671Z,7.74
2023-04-15T21:48:43.477Z,7.74
2023-04-15T21:51:47.624Z,7.67
2023-04-15T21:54:51.065Z,7.57
2023-04-15T21:57:54.404Z,7.54
2023-04-15T22:01:00.124Z,7.52
2023-04-15T22:04:03.497Z,7.54
2023-04-15T22:07:06.817Z,7.45
2023-04-15T22:10:10.306Z,7.42
2023-04-15T22:13:14.336Z,7.41
2023-04-15T22:16:17.383Z,7.28
2023-04-15T22:19:20.915Z,7.29
2023-04-15T22:22:27.100Z,7.22
2023-04-15T22:25:47.616Z,7.16
2023-04-15T22:28:51.657Z,7.07
2023-04-15T22:31:55.304Z,7.05
2023-04-15T22:34:58.383Z,7.05
2023-04-15T22:38:01.620Z,7.09
2023-04-15T22:41:05.195Z,7.10
2023-04-15T22:44:08.691Z,7.17
2023-04-15T22:47:11.975Z,7.09
2023-04-15T22:50:15.022Z,7.06
2023-04-15T22:53:18.434Z,7.02
2023-04-15T22:56:23.044Z,6.91
2023-04-15T22:59:26.202Z,6.91
2023-04-15T23:02:29.783Z,6.92
2023-04-15T23:05:32.918Z,6.86
2023-04-15T23:08:37.110Z,6.92
2023-04-15T23:11:40.195Z,6.99
2023-04-15T23:14:43.621Z,7.04
2023-04-15T23:17:46.861Z,7.05
2023-04-15T23:20:50.083Z,7.09
2023-04-15T23:23:53.234Z,7.05
2023-04-15T23:26:57.560Z,7.11
2023-04-15T23:30:00.864Z,7.10
2023-04-15T23:33:04.674Z,7.14
2023-04-15T23:36:08.094Z,7.24
2023-04-15T23:39:11.846Z,7.25
2023-04-15T23:42:14.940Z,7.26
2023-04-15T23:45:18.951Z,7.22
2023-04-15T23:48:23.766Z,7.19
2023-04-15T23:51:27.001Z,7.22
2023-04-15T23:54:30.181Z,7.21
2023-04-15T23:57:33.263Z,7.30
